<?xml version="1.0" encoding="UTF-8" standalone="no" ?>
<gpx xmlns="http://www.topografix.com/GPX/1/1" xmlns:xsi="http://www.w3.org/2001/XMLSchema-instance" xsi:schemaLocation="http://www.topografix.com/GPX/1/1 http://www.topografix.com/GPX/1/1/gpx.xsd" version="1.1" creator="VisuGPX - https://www.visugpx.com">
  <metadata>
    <name>Ligne 7 Hôpital - Tours Lignon</name>
  </metadata>
  <trk>
    <name><![CDATA[ligne 7 aller Hôpital - Tours Lignon_Sans titre - Trajet]]></name>
    <trkseg>
      <trkpt lat="46.18723" lon="6.14732">
        <ele>376.6</ele>
        <time>2020-05-04T12:45:08.000Z</time>
      </trkpt>
      <trkpt lat="46.18725" lon="6.14754">
        <ele>376.4</ele>
        <time>2020-05-04T12:45:09.971Z</time>
      </trkpt>
      <trkpt lat="46.18729" lon="6.14765">
        <ele>376.8</ele>
        <time>2020-05-04T12:45:12.440Z</time>
      </trkpt>
      <trkpt lat="46.18735" lon="6.14776">
        <ele>377.1</ele>
        <time>2020-05-04T12:45:14.647Z</time>
      </trkpt>
      <trkpt lat="46.18746" lon="6.14785">
        <ele>377.3</ele>
        <time>2020-05-04T12:45:17.045Z</time>
      </trkpt>
      <trkpt lat="46.18762" lon="6.14797">
        <ele>378.4</ele>
        <time>2020-05-04T12:45:22.625Z</time>
      </trkpt>
      <trkpt lat="46.18776" lon="6.14808">
        <ele>379.6</ele>
        <time>2020-05-04T12:45:28.040Z</time>
      </trkpt>
      <trkpt lat="46.188" lon="6.14823">
        <ele>382</ele>
        <time>2020-05-04T12:45:38.303Z</time>
      </trkpt>
      <trkpt lat="46.18821" lon="6.14835">
        <ele>384.2</ele>
        <time>2020-05-04T12:45:47.665Z</time>
      </trkpt>
      <trkpt lat="46.18843" lon="6.14843">
        <ele>386.8</ele>
        <time>2020-05-04T12:45:58.915Z</time>
      </trkpt>
      <trkpt lat="46.18868" lon="6.14851">
        <ele>390</ele>
        <time>2020-05-04T12:46:13.140Z</time>
      </trkpt>
      <trkpt lat="46.18906" lon="6.14863">
        <ele>395</ele>
        <time>2020-05-04T12:46:35.881Z</time>
      </trkpt>
      <trkpt lat="46.18948" lon="6.14873">
        <ele>396.3</ele>
        <time>2020-05-04T12:46:45.406Z</time>
      </trkpt>
      <trkpt lat="46.18998" lon="6.14883">
        <ele>395.6</ele>
        <time>2020-05-04T12:46:52.048Z</time>
      </trkpt>
      <trkpt lat="46.19041" lon="6.14887">
        <ele>393.1</ele>
        <time>2020-05-04T12:46:55.569Z</time>
      </trkpt>
      <trkpt lat="46.19088" lon="6.14893">
        <ele>390.7</ele>
        <time>2020-05-04T12:46:59.765Z</time>
      </trkpt>
      <trkpt lat="46.1912" lon="6.14897">
        <ele>390.1</ele>
        <time>2020-05-04T12:47:03.624Z</time>
      </trkpt>
      <trkpt lat="46.19154" lon="6.14902">
        <ele>389.3</ele>
        <time>2020-05-04T12:47:07.511Z</time>
      </trkpt>
      <trkpt lat="46.19171" lon="6.14906">
        <ele>389.1</ele>
        <time>2020-05-04T12:47:09.784Z</time>
      </trkpt>
      <trkpt lat="46.19181" lon="6.14911">
        <ele>389.7</ele>
        <time>2020-05-04T12:47:12.931Z</time>
      </trkpt>
      <trkpt lat="46.19189" lon="6.14916">
        <ele>390.2</ele>
        <time>2020-05-04T12:47:15.534Z</time>
      </trkpt>
      <trkpt lat="46.19196" lon="6.14924">
        <ele>391.3</ele>
        <time>2020-05-04T12:47:20.380Z</time>
      </trkpt>
      <trkpt lat="46.19205" lon="6.14936">
        <ele>393</ele>
        <time>2020-05-04T12:47:28.288Z</time>
      </trkpt>
      <trkpt lat="46.19213" lon="6.1495">
        <ele>394.7</ele>
        <time>2020-05-04T12:47:35.976Z</time>
      </trkpt>
      <trkpt lat="46.19233" lon="6.14986">
        <ele>398.8</ele>
        <time>2020-05-04T12:47:54.669Z</time>
      </trkpt>
      <trkpt lat="46.19244" lon="6.15004">
        <ele>400.4</ele>
        <time>2020-05-04T12:48:01.492Z</time>
      </trkpt>
      <trkpt lat="46.19251" lon="6.15014">
        <ele>400.9</ele>
        <time>2020-05-04T12:48:04.218Z</time>
      </trkpt>
      <trkpt lat="46.19262" lon="6.15026">
        <ele>401.1</ele>
        <time>2020-05-04T12:48:06.898Z</time>
      </trkpt>
      <trkpt lat="46.19272" lon="6.15035">
        <ele>401.2</ele>
        <time>2020-05-04T12:48:08.914Z</time>
      </trkpt>
      <trkpt lat="46.19289" lon="6.15045">
        <ele>401.2</ele>
        <time>2020-05-04T12:48:11.926Z</time>
      </trkpt>
      <trkpt lat="46.19301" lon="6.15054">
        <ele>401.4</ele>
        <time>2020-05-04T12:48:14.479Z</time>
      </trkpt>
      <trkpt lat="46.19322" lon="6.15065">
        <ele>401.6</ele>
        <time>2020-05-04T12:48:18.392Z</time>
      </trkpt>
      <trkpt lat="46.19336" lon="6.15069">
        <ele>401.4</ele>
        <time>2020-05-04T12:48:20.229Z</time>
      </trkpt>
      <trkpt lat="46.1935" lon="6.15071">
        <ele>401.4</ele>
        <time>2020-05-04T12:48:22.544Z</time>
      </trkpt>
      <trkpt lat="46.19363" lon="6.15069">
        <ele>400.8</ele>
        <time>2020-05-04T12:48:23.791Z</time>
      </trkpt>
      <trkpt lat="46.19379" lon="6.15063">
        <ele>400</ele>
        <time>2020-05-04T12:48:25.237Z</time>
      </trkpt>
      <trkpt lat="46.19394" lon="6.15053">
        <ele>398.8</ele>
        <time>2020-05-04T12:48:26.687Z</time>
      </trkpt>
      <trkpt lat="46.19407" lon="6.15042">
        <ele>397.6</ele>
        <time>2020-05-04T12:48:27.906Z</time>
      </trkpt>
      <trkpt lat="46.19419" lon="6.15028">
        <ele>396.3</ele>
        <time>2020-05-04T12:48:29.238Z</time>
      </trkpt>
      <trkpt lat="46.19433" lon="6.15004">
        <ele>394.4</ele>
        <time>2020-05-04T12:48:31.052Z</time>
      </trkpt>
      <trkpt lat="46.19443" lon="6.14984">
        <ele>393.8</ele>
        <time>2020-05-04T12:48:32.811Z</time>
      </trkpt>
      <trkpt lat="46.19457" lon="6.14955">
        <ele>393</ele>
        <time>2020-05-04T12:48:35.329Z</time>
      </trkpt>
      <trkpt lat="46.19468" lon="6.14933">
        <ele>392</ele>
        <time>2020-05-04T12:48:36.948Z</time>
      </trkpt>
      <trkpt lat="46.19478" lon="6.14916">
        <ele>391.1</ele>
        <time>2020-05-04T12:48:38.229Z</time>
      </trkpt>
      <trkpt lat="46.19502" lon="6.14883">
        <ele>390.9</ele>
        <time>2020-05-04T12:48:43.236Z</time>
      </trkpt>
      <trkpt lat="46.19515" lon="6.14865">
        <ele>391.6</ele>
        <time>2020-05-04T12:48:47.751Z</time>
      </trkpt>
      <trkpt lat="46.19523" lon="6.14858">
        <ele>391.9</ele>
        <time>2020-05-04T12:48:50.002Z</time>
      </trkpt>
      <trkpt lat="46.19526" lon="6.14856">
        <ele>392</ele>
        <time>2020-05-04T12:48:50.646Z</time>
      </trkpt>
      <trkpt lat="46.19528" lon="6.14855">
        <ele>392</ele>
        <time>2020-05-04T12:48:51.032Z</time>
      </trkpt>
      <trkpt lat="46.19532" lon="6.14854">
        <ele>392.1</ele>
        <time>2020-05-04T12:48:51.924Z</time>
      </trkpt>
      <trkpt lat="46.19535" lon="6.14854">
        <ele>392.1</ele>
        <time>2020-05-04T12:48:52.464Z</time>
      </trkpt>
      <trkpt lat="46.1954" lon="6.14856">
        <ele>392.2</ele>
        <time>2020-05-04T12:48:53.375Z</time>
      </trkpt>
      <trkpt lat="46.1963" lon="6.1491">
        <ele>401.5</ele>
        <time>2020-05-04T12:49:32.989Z</time>
      </trkpt>
      <trkpt lat="46.19635" lon="6.14912">
        <ele>402.3</ele>
        <time>2020-05-04T12:49:36.418Z</time>
      </trkpt>
      <trkpt lat="46.1964" lon="6.14912">
        <ele>403</ele>
        <time>2020-05-04T12:49:39.323Z</time>
      </trkpt>
      <trkpt lat="46.19651" lon="6.14911">
        <ele>404.4</ele>
        <time>2020-05-04T12:49:45.490Z</time>
      </trkpt>
      <trkpt lat="46.19675" lon="6.14909">
        <ele>405.4</ele>
        <time>2020-05-04T12:49:51.804Z</time>
      </trkpt>
      <trkpt lat="46.19678" lon="6.14909">
        <ele>405.1</ele>
        <time>2020-05-04T12:49:52.066Z</time>
      </trkpt>
      <trkpt lat="46.19681" lon="6.14909">
        <ele>405</ele>
        <time>2020-05-04T12:49:52.367Z</time>
      </trkpt>
      <trkpt lat="46.19684" lon="6.14911">
        <ele>404.9</ele>
        <time>2020-05-04T12:49:52.682Z</time>
      </trkpt>
      <trkpt lat="46.19688" lon="6.14915">
        <ele>405</ele>
        <time>2020-05-04T12:49:53.774Z</time>
      </trkpt>
      <trkpt lat="46.19703" lon="6.14936">
        <ele>405.2</ele>
        <time>2020-05-04T12:49:57.493Z</time>
      </trkpt>
      <trkpt lat="46.19705" lon="6.14938">
        <ele>405.2</ele>
        <time>2020-05-04T12:49:57.818Z</time>
      </trkpt>
      <trkpt lat="46.19707" lon="6.14938">
        <ele>405</ele>
        <time>2020-05-04T12:49:57.970Z</time>
      </trkpt>
      <trkpt lat="46.19709" lon="6.14937">
        <ele>404.8</ele>
        <time>2020-05-04T12:49:58.176Z</time>
      </trkpt>
      <trkpt lat="46.19712" lon="6.14934">
        <ele>404.4</ele>
        <time>2020-05-04T12:49:58.426Z</time>
      </trkpt>
      <trkpt lat="46.19724" lon="6.14917">
        <ele>402.1</ele>
        <time>2020-05-04T12:49:59.926Z</time>
      </trkpt>
      <trkpt lat="46.1976" lon="6.14863">
        <ele>396.5</ele>
        <time>2020-05-04T12:50:04.253Z</time>
      </trkpt>
      <trkpt lat="46.19763" lon="6.14858">
        <ele>396.1</ele>
        <time>2020-05-04T12:50:04.687Z</time>
      </trkpt>
      <trkpt lat="46.19765" lon="6.14856">
        <ele>396</ele>
        <time>2020-05-04T12:50:04.866Z</time>
      </trkpt>
      <trkpt lat="46.19767" lon="6.14856">
        <ele>395.9</ele>
        <time>2020-05-04T12:50:05.069Z</time>
      </trkpt>
      <trkpt lat="46.19769" lon="6.14857">
        <ele>395.9</ele>
        <time>2020-05-04T12:50:05.399Z</time>
      </trkpt>
      <trkpt lat="46.19771" lon="6.14859">
        <ele>396</ele>
        <time>2020-05-04T12:50:06.050Z</time>
      </trkpt>
      <trkpt lat="46.19776" lon="6.14866">
        <ele>396.2</ele>
        <time>2020-05-04T12:50:07.522Z</time>
      </trkpt>
      <trkpt lat="46.19793" lon="6.14889">
        <ele>396.5</ele>
        <time>2020-05-04T12:50:11.845Z</time>
      </trkpt>
      <trkpt lat="46.19838" lon="6.14955">
        <ele>397.5</ele>
        <time>2020-05-04T12:50:24.055Z</time>
      </trkpt>
      <trkpt lat="46.19858" lon="6.1498">
        <ele>399.5</ele>
        <time>2020-05-04T12:50:33.084Z</time>
      </trkpt>
      <trkpt lat="46.19954" lon="6.15118">
        <ele>405.4</ele>
        <time>2020-05-04T12:51:09.929Z</time>
      </trkpt>
      <trkpt lat="46.20008" lon="6.1519">
        <ele>403.5</ele>
        <time>2020-05-04T12:51:18.117Z</time>
      </trkpt>
      <trkpt lat="46.20015" lon="6.15203">
        <ele>402.4</ele>
        <time>2020-05-04T12:51:19.109Z</time>
      </trkpt>
      <trkpt lat="46.2002" lon="6.15212">
        <ele>401.7</ele>
        <time>2020-05-04T12:51:19.787Z</time>
      </trkpt>
      <trkpt lat="46.20023" lon="6.15218">
        <ele>401.3</ele>
        <time>2020-05-04T12:51:20.162Z</time>
      </trkpt>
      <trkpt lat="46.20028" lon="6.15225">
        <ele>400.7</ele>
        <time>2020-05-04T12:51:20.750Z</time>
      </trkpt>
      <trkpt lat="46.20056" lon="6.15263">
        <ele>397.9</ele>
        <time>2020-05-04T12:51:24.011Z</time>
      </trkpt>
      <trkpt lat="46.20061" lon="6.15269">
        <ele>397.5</ele>
        <time>2020-05-04T12:51:24.545Z</time>
      </trkpt>
      <trkpt lat="46.20066" lon="6.15275">
        <ele>397</ele>
        <time>2020-05-04T12:51:25.093Z</time>
      </trkpt>
      <trkpt lat="46.20072" lon="6.15283">
        <ele>396.5</ele>
        <time>2020-05-04T12:51:25.750Z</time>
      </trkpt>
      <trkpt lat="46.20079" lon="6.15289">
        <ele>395.9</ele>
        <time>2020-05-04T12:51:26.445Z</time>
      </trkpt>
      <trkpt lat="46.20086" lon="6.15299">
        <ele>395.3</ele>
        <time>2020-05-04T12:51:27.296Z</time>
      </trkpt>
      <trkpt lat="46.20095" lon="6.15312">
        <ele>395</ele>
        <time>2020-05-04T12:51:28.643Z</time>
      </trkpt>
      <trkpt lat="46.20099" lon="6.15318">
        <ele>394.9</ele>
        <time>2020-05-04T12:51:29.452Z</time>
      </trkpt>
      <trkpt lat="46.20103" lon="6.15322">
        <ele>394.8</ele>
        <time>2020-05-04T12:51:30.031Z</time>
      </trkpt>
      <trkpt lat="46.20108" lon="6.15325">
        <ele>394.7</ele>
        <time>2020-05-04T12:51:30.659Z</time>
      </trkpt>
      <trkpt lat="46.20113" lon="6.15328">
        <ele>394.6</ele>
        <time>2020-05-04T12:51:31.301Z</time>
      </trkpt>
      <trkpt lat="46.20125" lon="6.15332">
        <ele>394.5</ele>
        <time>2020-05-04T12:51:32.954Z</time>
      </trkpt>
      <trkpt lat="46.20128" lon="6.15334">
        <ele>394.5</ele>
        <time>2020-05-04T12:51:33.549Z</time>
      </trkpt>
      <trkpt lat="46.20132" lon="6.15338">
        <ele>394.5</ele>
        <time>2020-05-04T12:51:34.251Z</time>
      </trkpt>
      <trkpt lat="46.20135" lon="6.15342">
        <ele>394.6</ele>
        <time>2020-05-04T12:51:35.161Z</time>
      </trkpt>
      <trkpt lat="46.20138" lon="6.1535">
        <ele>394.6</ele>
        <time>2020-05-04T12:51:36.184Z</time>
      </trkpt>
      <trkpt lat="46.20141" lon="6.15357">
        <ele>394.6</ele>
        <time>2020-05-04T12:51:37.117Z</time>
      </trkpt>
      <trkpt lat="46.20144" lon="6.15364">
        <ele>394.6</ele>
        <time>2020-05-04T12:51:38.029Z</time>
      </trkpt>
      <trkpt lat="46.20147" lon="6.15369">
        <ele>394.5</ele>
        <time>2020-05-04T12:51:38.588Z</time>
      </trkpt>
      <trkpt lat="46.20151" lon="6.15372">
        <ele>394.4</ele>
        <time>2020-05-04T12:51:39.077Z</time>
      </trkpt>
      <trkpt lat="46.20155" lon="6.15375">
        <ele>394.1</ele>
        <time>2020-05-04T12:51:39.476Z</time>
      </trkpt>
      <trkpt lat="46.20159" lon="6.15377">
        <ele>393.9</ele>
        <time>2020-05-04T12:51:39.789Z</time>
      </trkpt>
      <trkpt lat="46.20164" lon="6.15379">
        <ele>393.6</ele>
        <time>2020-05-04T12:51:40.260Z</time>
      </trkpt>
      <trkpt lat="46.20168" lon="6.15378">
        <ele>393.4</ele>
        <time>2020-05-04T12:51:40.618Z</time>
      </trkpt>
      <trkpt lat="46.20172" lon="6.15377">
        <ele>393.1</ele>
        <time>2020-05-04T12:51:40.956Z</time>
      </trkpt>
      <trkpt lat="46.20176" lon="6.15373">
        <ele>392.9</ele>
        <time>2020-05-04T12:51:41.407Z</time>
      </trkpt>
      <trkpt lat="46.20179" lon="6.15369">
        <ele>392.7</ele>
        <time>2020-05-04T12:51:41.825Z</time>
      </trkpt>
      <trkpt lat="46.20183" lon="6.15363">
        <ele>392.4</ele>
        <time>2020-05-04T12:51:42.307Z</time>
      </trkpt>
      <trkpt lat="46.20186" lon="6.15356">
        <ele>392.2</ele>
        <time>2020-05-04T12:51:42.809Z</time>
      </trkpt>
      <trkpt lat="46.20187" lon="6.15349">
        <ele>392.1</ele>
        <time>2020-05-04T12:51:43.408Z</time>
      </trkpt>
      <trkpt lat="46.20188" lon="6.15341">
        <ele>392</ele>
        <time>2020-05-04T12:51:44.103Z</time>
      </trkpt>
      <trkpt lat="46.20188" lon="6.15334">
        <ele>392</ele>
        <time>2020-05-04T12:51:44.894Z</time>
      </trkpt>
      <trkpt lat="46.20187" lon="6.15328">
        <ele>392</ele>
        <time>2020-05-04T12:51:45.654Z</time>
      </trkpt>
      <trkpt lat="46.20185" lon="6.1532">
        <ele>392</ele>
        <time>2020-05-04T12:51:46.547Z</time>
      </trkpt>
      <trkpt lat="46.20183" lon="6.15312">
        <ele>392</ele>
        <time>2020-05-04T12:51:47.493Z</time>
      </trkpt>
      <trkpt lat="46.20182" lon="6.15306">
        <ele>392</ele>
        <time>2020-05-04T12:51:48.235Z</time>
      </trkpt>
      <trkpt lat="46.2018" lon="6.153">
        <ele>392</ele>
        <time>2020-05-04T12:51:48.961Z</time>
      </trkpt>
      <trkpt lat="46.2018" lon="6.15296">
        <ele>391.9</ele>
        <time>2020-05-04T12:51:49.250Z</time>
      </trkpt>
      <trkpt lat="46.20181" lon="6.15291">
        <ele>391.8</ele>
        <time>2020-05-04T12:51:49.647Z</time>
      </trkpt>
      <trkpt lat="46.20192" lon="6.15244">
        <ele>390.3</ele>
        <time>2020-05-04T12:51:52.838Z</time>
      </trkpt>
      <trkpt lat="46.20195" lon="6.15232">
        <ele>390.3</ele>
        <time>2020-05-04T12:51:54.306Z</time>
      </trkpt>
      <trkpt lat="46.20196" lon="6.15229">
        <ele>390.2</ele>
        <time>2020-05-04T12:51:54.541Z</time>
      </trkpt>
      <trkpt lat="46.20198" lon="6.15226">
        <ele>390.1</ele>
        <time>2020-05-04T12:51:54.842Z</time>
      </trkpt>
      <trkpt lat="46.20201" lon="6.15224">
        <ele>390</ele>
        <time>2020-05-04T12:51:55.187Z</time>
      </trkpt>
      <trkpt lat="46.20205" lon="6.15222">
        <ele>389.7</ele>
        <time>2020-05-04T12:51:55.508Z</time>
      </trkpt>
      <trkpt lat="46.20209" lon="6.15223">
        <ele>389.4</ele>
        <time>2020-05-04T12:51:55.872Z</time>
      </trkpt>
      <trkpt lat="46.20299" lon="6.15262">
        <ele>385.4</ele>
        <time>2020-05-04T12:52:04.681Z</time>
      </trkpt>
      <trkpt lat="46.20301" lon="6.15263">
        <ele>385.4</ele>
        <time>2020-05-04T12:52:05.155Z</time>
      </trkpt>
      <trkpt lat="46.20304" lon="6.15263">
        <ele>385.4</ele>
        <time>2020-05-04T12:52:05.547Z</time>
      </trkpt>
      <trkpt lat="46.20306" lon="6.15262">
        <ele>385.3</ele>
        <time>2020-05-04T12:52:05.796Z</time>
      </trkpt>
      <trkpt lat="46.20309" lon="6.1526">
        <ele>385.3</ele>
        <time>2020-05-04T12:52:06.321Z</time>
      </trkpt>
      <trkpt lat="46.20312" lon="6.15257">
        <ele>385.3</ele>
        <time>2020-05-04T12:52:06.871Z</time>
      </trkpt>
      <trkpt lat="46.20313" lon="6.15253">
        <ele>385.2</ele>
        <time>2020-05-04T12:52:07.168Z</time>
      </trkpt>
      <trkpt lat="46.20315" lon="6.15249">
        <ele>385.2</ele>
        <time>2020-05-04T12:52:07.765Z</time>
      </trkpt>
      <trkpt lat="46.20317" lon="6.15243">
        <ele>385.3</ele>
        <time>2020-05-04T12:52:08.635Z</time>
      </trkpt>
      <trkpt lat="46.2033" lon="6.1518">
        <ele>385.9</ele>
        <time>2020-05-04T12:52:17.123Z</time>
      </trkpt>
      <trkpt lat="46.20353" lon="6.15063">
        <ele>385.5</ele>
        <time>2020-05-04T12:52:29.955Z</time>
      </trkpt>
      <trkpt lat="46.20358" lon="6.15042">
        <ele>386.2</ele>
        <time>2020-05-04T12:52:34.227Z</time>
      </trkpt>
      <trkpt lat="46.20363" lon="6.15017">
        <ele>387</ele>
        <time>2020-05-04T12:52:39.132Z</time>
      </trkpt>
      <trkpt lat="46.20366" lon="6.15002">
        <ele>387.5</ele>
        <time>2020-05-04T12:52:42.166Z</time>
      </trkpt>
      <trkpt lat="46.20368" lon="6.14991">
        <ele>387.8</ele>
        <time>2020-05-04T12:52:44.119Z</time>
      </trkpt>
      <trkpt lat="46.20382" lon="6.14927">
        <ele>388.9</ele>
        <time>2020-05-04T12:52:53.802Z</time>
      </trkpt>
      <trkpt lat="46.20392" lon="6.14882">
        <ele>388.7</ele>
        <time>2020-05-04T12:52:58.699Z</time>
      </trkpt>
      <trkpt lat="46.20405" lon="6.14816">
        <ele>389.2</ele>
        <time>2020-05-04T12:53:07.311Z</time>
      </trkpt>
      <trkpt lat="46.20415" lon="6.14771">
        <ele>389.8</ele>
        <time>2020-05-04T12:53:13.685Z</time>
      </trkpt>
      <trkpt lat="46.20429" lon="6.14709">
        <ele>389.2</ele>
        <time>2020-05-04T12:53:19.597Z</time>
      </trkpt>
      <trkpt lat="46.2044" lon="6.14658">
        <ele>388.7</ele>
        <time>2020-05-04T12:53:24.367Z</time>
      </trkpt>
      <trkpt lat="46.20447" lon="6.14629">
        <ele>389.3</ele>
        <time>2020-05-04T12:53:29.067Z</time>
      </trkpt>
      <trkpt lat="46.20451" lon="6.1461">
        <ele>389.7</ele>
        <time>2020-05-04T12:53:32.144Z</time>
      </trkpt>
      <trkpt lat="46.20453" lon="6.14599">
        <ele>389.9</ele>
        <time>2020-05-04T12:53:33.800Z</time>
      </trkpt>
      <trkpt lat="46.20455" lon="6.14589">
        <ele>390</ele>
        <time>2020-05-04T12:53:35.099Z</time>
      </trkpt>
      <trkpt lat="46.20456" lon="6.1458">
        <ele>390.3</ele>
        <time>2020-05-04T12:53:36.885Z</time>
      </trkpt>
      <trkpt lat="46.20457" lon="6.14568">
        <ele>390.6</ele>
        <time>2020-05-04T12:53:38.882Z</time>
      </trkpt>
      <trkpt lat="46.20459" lon="6.14536">
        <ele>391.7</ele>
        <time>2020-05-04T12:53:45.297Z</time>
      </trkpt>
      <trkpt lat="46.20459" lon="6.14516">
        <ele>392.4</ele>
        <time>2020-05-04T12:53:49.283Z</time>
      </trkpt>
      <trkpt lat="46.20459" lon="6.14501">
        <ele>392.9</ele>
        <time>2020-05-04T12:53:52.158Z</time>
      </trkpt>
      <trkpt lat="46.20458" lon="6.14482">
        <ele>392.9</ele>
        <time>2020-05-04T12:53:54.279Z</time>
      </trkpt>
      <trkpt lat="46.20457" lon="6.14471">
        <ele>392.9</ele>
        <time>2020-05-04T12:53:55.615Z</time>
      </trkpt>
      <trkpt lat="46.20438" lon="6.14385">
        <ele>392.5</ele>
        <time>2020-05-04T12:54:04.843Z</time>
      </trkpt>
      <trkpt lat="46.20436" lon="6.14373">
        <ele>392.2</ele>
        <time>2020-05-04T12:54:05.770Z</time>
      </trkpt>
      <trkpt lat="46.20435" lon="6.14367">
        <ele>392</ele>
        <time>2020-05-04T12:54:06.156Z</time>
      </trkpt>
      <trkpt lat="46.20435" lon="6.14362">
        <ele>391.8</ele>
        <time>2020-05-04T12:54:06.418Z</time>
      </trkpt>
      <trkpt lat="46.20435" lon="6.14356">
        <ele>391.5</ele>
        <time>2020-05-04T12:54:06.771Z</time>
      </trkpt>
      <trkpt lat="46.20439" lon="6.14333">
        <ele>389.7</ele>
        <time>2020-05-04T12:54:08.152Z</time>
      </trkpt>
      <trkpt lat="46.20441" lon="6.1433">
        <ele>389.3</ele>
        <time>2020-05-04T12:54:08.370Z</time>
      </trkpt>
      <trkpt lat="46.20442" lon="6.14328">
        <ele>388.9</ele>
        <time>2020-05-04T12:54:08.551Z</time>
      </trkpt>
      <trkpt lat="46.20445" lon="6.14327">
        <ele>388.5</ele>
        <time>2020-05-04T12:54:08.786Z</time>
      </trkpt>
      <trkpt lat="46.2045" lon="6.14324">
        <ele>387.6</ele>
        <time>2020-05-04T12:54:09.252Z</time>
      </trkpt>
      <trkpt lat="46.2049" lon="6.14304">
        <ele>381.3</ele>
        <time>2020-05-04T12:54:12.766Z</time>
      </trkpt>
      <trkpt lat="46.2056" lon="6.1427">
        <ele>376</ele>
        <time>2020-05-04T12:54:19.016Z</time>
      </trkpt>
      <trkpt lat="46.20563" lon="6.14268">
        <ele>375.8</ele>
        <time>2020-05-04T12:54:19.273Z</time>
      </trkpt>
      <trkpt lat="46.20564" lon="6.14266">
        <ele>375.6</ele>
        <time>2020-05-04T12:54:19.482Z</time>
      </trkpt>
      <trkpt lat="46.20566" lon="6.14263">
        <ele>375.4</ele>
        <time>2020-05-04T12:54:19.695Z</time>
      </trkpt>
      <trkpt lat="46.20568" lon="6.1426">
        <ele>375.2</ele>
        <time>2020-05-04T12:54:19.917Z</time>
      </trkpt>
      <trkpt lat="46.20568" lon="6.14256">
        <ele>375</ele>
        <time>2020-05-04T12:54:20.135Z</time>
      </trkpt>
      <trkpt lat="46.20569" lon="6.14253">
        <ele>374.8</ele>
        <time>2020-05-04T12:54:20.361Z</time>
      </trkpt>
      <trkpt lat="46.2057" lon="6.14249">
        <ele>374.7</ele>
        <time>2020-05-04T12:54:20.579Z</time>
      </trkpt>
      <trkpt lat="46.2057" lon="6.14234">
        <ele>374.6</ele>
        <time>2020-05-04T12:54:22.068Z</time>
      </trkpt>
      <trkpt lat="46.20569" lon="6.14212">
        <ele>374.4</ele>
        <time>2020-05-04T12:54:23.966Z</time>
      </trkpt>
      <trkpt lat="46.2057" lon="6.142">
        <ele>374.3</ele>
        <time>2020-05-04T12:54:25.151Z</time>
      </trkpt>
      <trkpt lat="46.20571" lon="6.14192">
        <ele>374.3</ele>
        <time>2020-05-04T12:54:26.007Z</time>
      </trkpt>
      <trkpt lat="46.20573" lon="6.14187">
        <ele>374.2</ele>
        <time>2020-05-04T12:54:26.462Z</time>
      </trkpt>
      <trkpt lat="46.20576" lon="6.14181">
        <ele>374.1</ele>
        <time>2020-05-04T12:54:27.095Z</time>
      </trkpt>
      <trkpt lat="46.20592" lon="6.14151">
        <ele>375.2</ele>
        <time>2020-05-04T12:54:34.043Z</time>
      </trkpt>
      <trkpt lat="46.20598" lon="6.14142">
        <ele>376.1</ele>
        <time>2020-05-04T12:54:37.867Z</time>
      </trkpt>
      <trkpt lat="46.20603" lon="6.14134">
        <ele>376.9</ele>
        <time>2020-05-04T12:54:41.270Z</time>
      </trkpt>
      <trkpt lat="46.20607" lon="6.14129">
        <ele>377.5</ele>
        <time>2020-05-04T12:54:43.840Z</time>
      </trkpt>
      <trkpt lat="46.20611" lon="6.14123">
        <ele>378</ele>
        <time>2020-05-04T12:54:46.019Z</time>
      </trkpt>
      <trkpt lat="46.20625" lon="6.14095">
        <ele>380</ele>
        <time>2020-05-04T12:54:54.782Z</time>
      </trkpt>
      <trkpt lat="46.20641" lon="6.14063">
        <ele>382.2</ele>
        <time>2020-05-04T12:55:04.546Z</time>
      </trkpt>
      <trkpt lat="46.20653" lon="6.14041">
        <ele>383.7</ele>
        <time>2020-05-04T12:55:11.282Z</time>
      </trkpt>
      <trkpt lat="46.20668" lon="6.14017">
        <ele>385.3</ele>
        <time>2020-05-04T12:55:18.648Z</time>
      </trkpt>
      <trkpt lat="46.20681" lon="6.13994">
        <ele>385.8</ele>
        <time>2020-05-04T12:55:22.981Z</time>
      </trkpt>
      <trkpt lat="46.20682" lon="6.13991">
        <ele>385.8</ele>
        <time>2020-05-04T12:55:23.410Z</time>
      </trkpt>
      <trkpt lat="46.20683" lon="6.13987">
        <ele>385.8</ele>
        <time>2020-05-04T12:55:23.810Z</time>
      </trkpt>
      <trkpt lat="46.20684" lon="6.13982">
        <ele>385.7</ele>
        <time>2020-05-04T12:55:24.222Z</time>
      </trkpt>
      <trkpt lat="46.20684" lon="6.13975">
        <ele>385.4</ele>
        <time>2020-05-04T12:55:24.578Z</time>
      </trkpt>
      <trkpt lat="46.20683" lon="6.13969">
        <ele>385.2</ele>
        <time>2020-05-04T12:55:24.981Z</time>
      </trkpt>
      <trkpt lat="46.20679" lon="6.13904">
        <ele>383.5</ele>
        <time>2020-05-04T12:55:29.496Z</time>
      </trkpt>
      <trkpt lat="46.20675" lon="6.13861">
        <ele>384.1</ele>
        <time>2020-05-04T12:55:35.480Z</time>
      </trkpt>
      <trkpt lat="46.20673" lon="6.13827">
        <ele>384.6</ele>
        <time>2020-05-04T12:55:40.281Z</time>
      </trkpt>
      <trkpt lat="46.20672" lon="6.13821">
        <ele>384.6</ele>
        <time>2020-05-04T12:55:40.968Z</time>
      </trkpt>
      <trkpt lat="46.2067" lon="6.13814">
        <ele>384.6</ele>
        <time>2020-05-04T12:55:41.769Z</time>
      </trkpt>
      <trkpt lat="46.20668" lon="6.13808">
        <ele>384.5</ele>
        <time>2020-05-04T12:55:42.371Z</time>
      </trkpt>
      <trkpt lat="46.20665" lon="6.13802">
        <ele>384.2</ele>
        <time>2020-05-04T12:55:42.800Z</time>
      </trkpt>
      <trkpt lat="46.20662" lon="6.13796">
        <ele>384</ele>
        <time>2020-05-04T12:55:43.306Z</time>
      </trkpt>
      <trkpt lat="46.20644" lon="6.1376">
        <ele>382.7</ele>
        <time>2020-05-04T12:55:46.191Z</time>
      </trkpt>
      <trkpt lat="46.20641" lon="6.13753">
        <ele>382.5</ele>
        <time>2020-05-04T12:55:46.825Z</time>
      </trkpt>
      <trkpt lat="46.20638" lon="6.13745">
        <ele>382.3</ele>
        <time>2020-05-04T12:55:47.442Z</time>
      </trkpt>
      <trkpt lat="46.20635" lon="6.13736">
        <ele>382.2</ele>
        <time>2020-05-04T12:55:48.350Z</time>
      </trkpt>
      <trkpt lat="46.20623" lon="6.13698">
        <ele>381.8</ele>
        <time>2020-05-04T12:55:52.034Z</time>
      </trkpt>
      <trkpt lat="46.20604" lon="6.13633">
        <ele>383.5</ele>
        <time>2020-05-04T12:56:03.734Z</time>
      </trkpt>
      <trkpt lat="46.20592" lon="6.1358">
        <ele>387.6</ele>
        <time>2020-05-04T12:56:21.169Z</time>
      </trkpt>
      <trkpt lat="46.20582" lon="6.13528">
        <ele>392.1</ele>
        <time>2020-05-04T12:56:41.086Z</time>
      </trkpt>
      <trkpt lat="46.20579" lon="6.13507">
        <ele>393.6</ele>
        <time>2020-05-04T12:56:47.463Z</time>
      </trkpt>
      <trkpt lat="46.20577" lon="6.13484">
        <ele>394.6</ele>
        <time>2020-05-04T12:56:52.434Z</time>
      </trkpt>
      <trkpt lat="46.20574" lon="6.13471">
        <ele>395.1</ele>
        <time>2020-05-04T12:56:55.176Z</time>
      </trkpt>
      <trkpt lat="46.20569" lon="6.13454">
        <ele>396</ele>
        <time>2020-05-04T12:56:59.371Z</time>
      </trkpt>
      <trkpt lat="46.20567" lon="6.13437">
        <ele>397.4</ele>
        <time>2020-05-04T12:57:05.529Z</time>
      </trkpt>
      <trkpt lat="46.20563" lon="6.13408">
        <ele>399.4</ele>
        <time>2020-05-04T12:57:14.038Z</time>
      </trkpt>
      <trkpt lat="46.20555" lon="6.13352">
        <ele>398.7</ele>
        <time>2020-05-04T12:57:18.848Z</time>
      </trkpt>
      <trkpt lat="46.20554" lon="6.13344">
        <ele>398.5</ele>
        <time>2020-05-04T12:57:19.473Z</time>
      </trkpt>
      <trkpt lat="46.20551" lon="6.13333">
        <ele>398.2</ele>
        <time>2020-05-04T12:57:20.243Z</time>
      </trkpt>
      <trkpt lat="46.20548" lon="6.1331">
        <ele>398.7</ele>
        <time>2020-05-04T12:57:23.933Z</time>
      </trkpt>
      <trkpt lat="46.20545" lon="6.13281">
        <ele>399.4</ele>
        <time>2020-05-04T12:57:28.781Z</time>
      </trkpt>
      <trkpt lat="46.20544" lon="6.13265">
        <ele>399.8</ele>
        <time>2020-05-04T12:57:31.517Z</time>
      </trkpt>
      <trkpt lat="46.20545" lon="6.13253">
        <ele>400.1</ele>
        <time>2020-05-04T12:57:33.544Z</time>
      </trkpt>
      <trkpt lat="46.20545" lon="6.13244">
        <ele>400.5</ele>
        <time>2020-05-04T12:57:35.553Z</time>
      </trkpt>
      <trkpt lat="46.20544" lon="6.13235">
        <ele>400.9</ele>
        <time>2020-05-04T12:57:37.425Z</time>
      </trkpt>
      <trkpt lat="46.20543" lon="6.13228">
        <ele>401.3</ele>
        <time>2020-05-04T12:57:39.209Z</time>
      </trkpt>
      <trkpt lat="46.20538" lon="6.1321">
        <ele>401.9</ele>
        <time>2020-05-04T12:57:42.951Z</time>
      </trkpt>
      <trkpt lat="46.20535" lon="6.13199">
        <ele>402.2</ele>
        <time>2020-05-04T12:57:44.951Z</time>
      </trkpt>
      <trkpt lat="46.20531" lon="6.13187">
        <ele>402.5</ele>
        <time>2020-05-04T12:57:47.098Z</time>
      </trkpt>
      <trkpt lat="46.20527" lon="6.13175">
        <ele>402.5</ele>
        <time>2020-05-04T12:57:48.645Z</time>
      </trkpt>
      <trkpt lat="46.20523" lon="6.13166">
        <ele>402.4</ele>
        <time>2020-05-04T12:57:49.622Z</time>
      </trkpt>
      <trkpt lat="46.2052" lon="6.13154">
        <ele>402.3</ele>
        <time>2020-05-04T12:57:50.709Z</time>
      </trkpt>
      <trkpt lat="46.20517" lon="6.13135">
        <ele>402</ele>
        <time>2020-05-04T12:57:52.265Z</time>
      </trkpt>
      <trkpt lat="46.20508" lon="6.13072">
        <ele>401</ele>
        <time>2020-05-04T12:57:57.522Z</time>
      </trkpt>
      <trkpt lat="46.20501" lon="6.13015">
        <ele>399.4</ele>
        <time>2020-05-04T12:58:01.417Z</time>
      </trkpt>
      <trkpt lat="46.20496" lon="6.12973">
        <ele>400.8</ele>
        <time>2020-05-04T12:58:09.621Z</time>
      </trkpt>
      <trkpt lat="46.20479" lon="6.12843">
        <ele>407.2</ele>
        <time>2020-05-04T12:58:39.771Z</time>
      </trkpt>
      <trkpt lat="46.20475" lon="6.12813">
        <ele>406.2</ele>
        <time>2020-05-04T12:58:41.672Z</time>
      </trkpt>
      <trkpt lat="46.20463" lon="6.12719">
        <ele>401.6</ele>
        <time>2020-05-04T12:58:47.250Z</time>
      </trkpt>
      <trkpt lat="46.20448" lon="6.12606">
        <ele>403.3</ele>
        <time>2020-05-04T12:59:03.399Z</time>
      </trkpt>
      <trkpt lat="46.20442" lon="6.12567">
        <ele>405.1</ele>
        <time>2020-05-04T12:59:12.178Z</time>
      </trkpt>
      <trkpt lat="46.20442" lon="6.12557">
        <ele>405.5</ele>
        <time>2020-05-04T12:59:14.165Z</time>
      </trkpt>
      <trkpt lat="46.20441" lon="6.12547">
        <ele>405.9</ele>
        <time>2020-05-04T12:59:16.308Z</time>
      </trkpt>
      <trkpt lat="46.2044" lon="6.12534">
        <ele>406.4</ele>
        <time>2020-05-04T12:59:19.023Z</time>
      </trkpt>
      <trkpt lat="46.20434" lon="6.12495">
        <ele>407.9</ele>
        <time>2020-05-04T12:59:27.062Z</time>
      </trkpt>
      <trkpt lat="46.20434" lon="6.12486">
        <ele>408.4</ele>
        <time>2020-05-04T12:59:29.302Z</time>
      </trkpt>
      <trkpt lat="46.20434" lon="6.12482">
        <ele>408.7</ele>
        <time>2020-05-04T12:59:30.576Z</time>
      </trkpt>
      <trkpt lat="46.20436" lon="6.12479">
        <ele>409.1</ele>
        <time>2020-05-04T12:59:32.189Z</time>
      </trkpt>
      <trkpt lat="46.20438" lon="6.12476">
        <ele>409.6</ele>
        <time>2020-05-04T12:59:34.312Z</time>
      </trkpt>
      <trkpt lat="46.20442" lon="6.12473">
        <ele>410.2</ele>
        <time>2020-05-04T12:59:36.735Z</time>
      </trkpt>
      <trkpt lat="46.20448" lon="6.12471">
        <ele>411</ele>
        <time>2020-05-04T12:59:40.395Z</time>
      </trkpt>
      <trkpt lat="46.20469" lon="6.12464">
        <ele>413.6</ele>
        <time>2020-05-04T12:59:51.833Z</time>
      </trkpt>
      <trkpt lat="46.20558" lon="6.12434">
        <ele>417.3</ele>
        <time>2020-05-04T13:00:15.568Z</time>
      </trkpt>
      <trkpt lat="46.20608" lon="6.12417">
        <ele>416.4</ele>
        <time>2020-05-04T13:00:21.845Z</time>
      </trkpt>
      <trkpt lat="46.20611" lon="6.12416">
        <ele>416.3</ele>
        <time>2020-05-04T13:00:22.196Z</time>
      </trkpt>
      <trkpt lat="46.20614" lon="6.12413">
        <ele>416.2</ele>
        <time>2020-05-04T13:00:22.639Z</time>
      </trkpt>
      <trkpt lat="46.20616" lon="6.1241">
        <ele>416</ele>
        <time>2020-05-04T13:00:22.874Z</time>
      </trkpt>
      <trkpt lat="46.20618" lon="6.12405">
        <ele>415.9</ele>
        <time>2020-05-04T13:00:23.324Z</time>
      </trkpt>
      <trkpt lat="46.20621" lon="6.12398">
        <ele>415.7</ele>
        <time>2020-05-04T13:00:23.818Z</time>
      </trkpt>
      <trkpt lat="46.20625" lon="6.12382">
        <ele>415.4</ele>
        <time>2020-05-04T13:00:25.218Z</time>
      </trkpt>
      <trkpt lat="46.20648" lon="6.12306">
        <ele>415.5</ele>
        <time>2020-05-04T13:00:34.708Z</time>
      </trkpt>
      <trkpt lat="46.20656" lon="6.1228">
        <ele>416.1</ele>
        <time>2020-05-04T13:00:39.148Z</time>
      </trkpt>
      <trkpt lat="46.20657" lon="6.12275">
        <ele>416.2</ele>
        <time>2020-05-04T13:00:39.987Z</time>
      </trkpt>
      <trkpt lat="46.20662" lon="6.12261">
        <ele>416.6</ele>
        <time>2020-05-04T13:00:42.612Z</time>
      </trkpt>
      <trkpt lat="46.20666" lon="6.1225">
        <ele>417</ele>
        <time>2020-05-04T13:00:45.003Z</time>
      </trkpt>
      <trkpt lat="46.20677" lon="6.12217">
        <ele>416.6</ele>
        <time>2020-05-04T13:00:48.219Z</time>
      </trkpt>
      <trkpt lat="46.20698" lon="6.12148">
        <ele>416.8</ele>
        <time>2020-05-04T13:00:57.065Z</time>
      </trkpt>
      <trkpt lat="46.20704" lon="6.12126">
        <ele>417.4</ele>
        <time>2020-05-04T13:01:01.062Z</time>
      </trkpt>
      <trkpt lat="46.20705" lon="6.12121">
        <ele>417.5</ele>
        <time>2020-05-04T13:01:01.834Z</time>
      </trkpt>
      <trkpt lat="46.20705" lon="6.12117">
        <ele>417.6</ele>
        <time>2020-05-04T13:01:02.573Z</time>
      </trkpt>
      <trkpt lat="46.20704" lon="6.12111">
        <ele>417.7</ele>
        <time>2020-05-04T13:01:03.417Z</time>
      </trkpt>
      <trkpt lat="46.20702" lon="6.12102">
        <ele>417.9</ele>
        <time>2020-05-04T13:01:04.901Z</time>
      </trkpt>
      <trkpt lat="46.20672" lon="6.1197">
        <ele>418.5</ele>
        <time>2020-05-04T13:01:21.575Z</time>
      </trkpt>
      <trkpt lat="46.20655" lon="6.11896">
        <ele>419.9</ele>
        <time>2020-05-04T13:01:33.165Z</time>
      </trkpt>
      <trkpt lat="46.20646" lon="6.11857">
        <ele>420.1</ele>
        <time>2020-05-04T13:01:38.046Z</time>
      </trkpt>
      <trkpt lat="46.20635" lon="6.11805">
        <ele>420.3</ele>
        <time>2020-05-04T13:01:44.498Z</time>
      </trkpt>
      <trkpt lat="46.20619" lon="6.11736">
        <ele>420.8</ele>
        <time>2020-05-04T13:01:53.596Z</time>
      </trkpt>
      <trkpt lat="46.20597" lon="6.11635">
        <ele>424.2</ele>
        <time>2020-05-04T13:02:14.006Z</time>
      </trkpt>
      <trkpt lat="46.20582" lon="6.1157">
        <ele>425.8</ele>
        <time>2020-05-04T13:02:25.176Z</time>
      </trkpt>
      <trkpt lat="46.2057" lon="6.11514">
        <ele>424.2</ele>
        <time>2020-05-04T13:02:29.142Z</time>
      </trkpt>
      <trkpt lat="46.20567" lon="6.11501">
        <ele>423.9</ele>
        <time>2020-05-04T13:02:30.196Z</time>
      </trkpt>
      <trkpt lat="46.20561" lon="6.11478">
        <ele>423.3</ele>
        <time>2020-05-04T13:02:31.867Z</time>
      </trkpt>
      <trkpt lat="46.20551" lon="6.11442">
        <ele>422.5</ele>
        <time>2020-05-04T13:02:34.745Z</time>
      </trkpt>
      <trkpt lat="46.20548" lon="6.11432">
        <ele>422.3</ele>
        <time>2020-05-04T13:02:35.631Z</time>
      </trkpt>
      <trkpt lat="46.20542" lon="6.11412">
        <ele>422</ele>
        <time>2020-05-04T13:02:37.443Z</time>
      </trkpt>
      <trkpt lat="46.20535" lon="6.11391">
        <ele>421.5</ele>
        <time>2020-05-04T13:02:39.097Z</time>
      </trkpt>
      <trkpt lat="46.20525" lon="6.11362">
        <ele>420.5</ele>
        <time>2020-05-04T13:02:41.211Z</time>
      </trkpt>
      <trkpt lat="46.20523" lon="6.11354">
        <ele>420.2</ele>
        <time>2020-05-04T13:02:41.771Z</time>
      </trkpt>
      <trkpt lat="46.20521" lon="6.11345">
        <ele>419.9</ele>
        <time>2020-05-04T13:02:42.320Z</time>
      </trkpt>
      <trkpt lat="46.20518" lon="6.11331">
        <ele>419.6</ele>
        <time>2020-05-04T13:02:43.473Z</time>
      </trkpt>
      <trkpt lat="46.20516" lon="6.11318">
        <ele>419.7</ele>
        <time>2020-05-04T13:02:45.050Z</time>
      </trkpt>
      <trkpt lat="46.20514" lon="6.11302">
        <ele>420</ele>
        <time>2020-05-04T13:02:47.541Z</time>
      </trkpt>
      <trkpt lat="46.20512" lon="6.11279">
        <ele>420.5</ele>
        <time>2020-05-04T13:02:51.159Z</time>
      </trkpt>
      <trkpt lat="46.2051" lon="6.11259">
        <ele>421</ele>
        <time>2020-05-04T13:02:54.595Z</time>
      </trkpt>
      <trkpt lat="46.20508" lon="6.11236">
        <ele>420.3</ele>
        <time>2020-05-04T13:02:56.060Z</time>
      </trkpt>
      <trkpt lat="46.20505" lon="6.11198">
        <ele>417.7</ele>
        <time>2020-05-04T13:02:58.302Z</time>
      </trkpt>
      <trkpt lat="46.20503" lon="6.11167">
        <ele>415.4</ele>
        <time>2020-05-04T13:03:00.121Z</time>
      </trkpt>
      <trkpt lat="46.20499" lon="6.11114">
        <ele>415.4</ele>
        <time>2020-05-04T13:03:06.178Z</time>
      </trkpt>
      <trkpt lat="46.20497" lon="6.11092">
        <ele>414.9</ele>
        <time>2020-05-04T13:03:07.785Z</time>
      </trkpt>
      <trkpt lat="46.20495" lon="6.11073">
        <ele>414.5</ele>
        <time>2020-05-04T13:03:09.218Z</time>
      </trkpt>
      <trkpt lat="46.20492" lon="6.11054">
        <ele>414</ele>
        <time>2020-05-04T13:03:10.575Z</time>
      </trkpt>
      <trkpt lat="46.20489" lon="6.11036">
        <ele>413.4</ele>
        <time>2020-05-04T13:03:11.722Z</time>
      </trkpt>
      <trkpt lat="46.20486" lon="6.11024">
        <ele>412.8</ele>
        <time>2020-05-04T13:03:12.479Z</time>
      </trkpt>
      <trkpt lat="46.20483" lon="6.1101">
        <ele>412</ele>
        <time>2020-05-04T13:03:13.302Z</time>
      </trkpt>
      <trkpt lat="46.2048" lon="6.11001">
        <ele>411.3</ele>
        <time>2020-05-04T13:03:13.937Z</time>
      </trkpt>
      <trkpt lat="46.20476" lon="6.10992">
        <ele>411.2</ele>
        <time>2020-05-04T13:03:14.826Z</time>
      </trkpt>
      <trkpt lat="46.20471" lon="6.10976">
        <ele>411.2</ele>
        <time>2020-05-04T13:03:16.870Z</time>
      </trkpt>
      <trkpt lat="46.20464" lon="6.10958">
        <ele>411.4</ele>
        <time>2020-05-04T13:03:19.415Z</time>
      </trkpt>
      <trkpt lat="46.20463" lon="6.10953">
        <ele>411.7</ele>
        <time>2020-05-04T13:03:20.808Z</time>
      </trkpt>
      <trkpt lat="46.20463" lon="6.10948">
        <ele>412.2</ele>
        <time>2020-05-04T13:03:22.605Z</time>
      </trkpt>
      <trkpt lat="46.20463" lon="6.10944">
        <ele>412.7</ele>
        <time>2020-05-04T13:03:24.701Z</time>
      </trkpt>
      <trkpt lat="46.20463" lon="6.10937">
        <ele>413.7</ele>
        <time>2020-05-04T13:03:27.775Z</time>
      </trkpt>
      <trkpt lat="46.20462" lon="6.1093">
        <ele>414.2</ele>
        <time>2020-05-04T13:03:29.910Z</time>
      </trkpt>
      <trkpt lat="46.20461" lon="6.10926">
        <ele>414.3</ele>
        <time>2020-05-04T13:03:30.673Z</time>
      </trkpt>
      <trkpt lat="46.20457" lon="6.10923">
        <ele>413.9</ele>
        <time>2020-05-04T13:03:30.983Z</time>
      </trkpt>
      <trkpt lat="46.20454" lon="6.10923">
        <ele>413.2</ele>
        <time>2020-05-04T13:03:31.280Z</time>
      </trkpt>
      <trkpt lat="46.2045" lon="6.1092">
        <ele>412.7</ele>
        <time>2020-05-04T13:03:31.617Z</time>
      </trkpt>
      <trkpt lat="46.20447" lon="6.10917">
        <ele>412.4</ele>
        <time>2020-05-04T13:03:31.950Z</time>
      </trkpt>
      <trkpt lat="46.20443" lon="6.10913">
        <ele>412</ele>
        <time>2020-05-04T13:03:32.364Z</time>
      </trkpt>
      <trkpt lat="46.20437" lon="6.10907">
        <ele>411.4</ele>
        <time>2020-05-04T13:03:32.949Z</time>
      </trkpt>
      <trkpt lat="46.20429" lon="6.10897">
        <ele>410.6</ele>
        <time>2020-05-04T13:03:33.917Z</time>
      </trkpt>
      <trkpt lat="46.20417" lon="6.10881">
        <ele>409.9</ele>
        <time>2020-05-04T13:03:35.400Z</time>
      </trkpt>
      <trkpt lat="46.20389" lon="6.10841">
        <ele>407.7</ele>
        <time>2020-05-04T13:03:38.661Z</time>
      </trkpt>
      <trkpt lat="46.20364" lon="6.10806">
        <ele>405.2</ele>
        <time>2020-05-04T13:03:41.606Z</time>
      </trkpt>
      <trkpt lat="46.20344" lon="6.10776">
        <ele>404</ele>
        <time>2020-05-04T13:03:44.432Z</time>
      </trkpt>
      <trkpt lat="46.2032" lon="6.10741">
        <ele>403.3</ele>
        <time>2020-05-04T13:03:48.420Z</time>
      </trkpt>
      <trkpt lat="46.20312" lon="6.10727">
        <ele>402.8</ele>
        <time>2020-05-04T13:03:49.661Z</time>
      </trkpt>
      <trkpt lat="46.20305" lon="6.10715">
        <ele>402.5</ele>
        <time>2020-05-04T13:03:50.794Z</time>
      </trkpt>
      <trkpt lat="46.20296" lon="6.10695">
        <ele>402.1</ele>
        <time>2020-05-04T13:03:52.783Z</time>
      </trkpt>
      <trkpt lat="46.20286" lon="6.10673">
        <ele>401.6</ele>
        <time>2020-05-04T13:03:54.684Z</time>
      </trkpt>
      <trkpt lat="46.20277" lon="6.10651">
        <ele>402</ele>
        <time>2020-05-04T13:03:58.367Z</time>
      </trkpt>
      <trkpt lat="46.20266" lon="6.10625">
        <ele>403.1</ele>
        <time>2020-05-04T13:04:04.539Z</time>
      </trkpt>
      <trkpt lat="46.20254" lon="6.10596">
        <ele>404.9</ele>
        <time>2020-05-04T13:04:12.659Z</time>
      </trkpt>
      <trkpt lat="46.20251" lon="6.10588">
        <ele>405.4</ele>
        <time>2020-05-04T13:04:14.861Z</time>
      </trkpt>
      <trkpt lat="46.20247" lon="6.1058">
        <ele>405.5</ele>
        <time>2020-05-04T13:04:16.167Z</time>
      </trkpt>
      <trkpt lat="46.20242" lon="6.10571">
        <ele>405.2</ele>
        <time>2020-05-04T13:04:16.999Z</time>
      </trkpt>
      <trkpt lat="46.20237" lon="6.10563">
        <ele>404.8</ele>
        <time>2020-05-04T13:04:17.639Z</time>
      </trkpt>
      <trkpt lat="46.20231" lon="6.10555">
        <ele>404.3</ele>
        <time>2020-05-04T13:04:18.230Z</time>
      </trkpt>
      <trkpt lat="46.20225" lon="6.10547">
        <ele>403.5</ele>
        <time>2020-05-04T13:04:18.936Z</time>
      </trkpt>
      <trkpt lat="46.20218" lon="6.10539">
        <ele>402.8</ele>
        <time>2020-05-04T13:04:19.646Z</time>
      </trkpt>
      <trkpt lat="46.20208" lon="6.1053">
        <ele>401.4</ele>
        <time>2020-05-04T13:04:20.670Z</time>
      </trkpt>
      <trkpt lat="46.202" lon="6.10522">
        <ele>400.2</ele>
        <time>2020-05-04T13:04:21.515Z</time>
      </trkpt>
      <trkpt lat="46.20188" lon="6.10513">
        <ele>398.4</ele>
        <time>2020-05-04T13:04:22.647Z</time>
      </trkpt>
      <trkpt lat="46.20178" lon="6.10505">
        <ele>397</ele>
        <time>2020-05-04T13:04:23.638Z</time>
      </trkpt>
      <trkpt lat="46.2017" lon="6.10497">
        <ele>396.3</ele>
        <time>2020-05-04T13:04:24.429Z</time>
      </trkpt>
      <trkpt lat="46.20162" lon="6.10489">
        <ele>396.8</ele>
        <time>2020-05-04T13:04:27.179Z</time>
      </trkpt>
      <trkpt lat="46.20155" lon="6.10478">
        <ele>397.9</ele>
        <time>2020-05-04T13:04:31.857Z</time>
      </trkpt>
      <trkpt lat="46.20149" lon="6.10467">
        <ele>399.2</ele>
        <time>2020-05-04T13:04:37.736Z</time>
      </trkpt>
      <trkpt lat="46.20136" lon="6.10442">
        <ele>401</ele>
        <time>2020-05-04T13:04:45.678Z</time>
      </trkpt>
      <trkpt lat="46.20127" lon="6.10424">
        <ele>401.8</ele>
        <time>2020-05-04T13:04:50.234Z</time>
      </trkpt>
      <trkpt lat="46.20115" lon="6.10402">
        <ele>401.7</ele>
        <time>2020-05-04T13:04:53.052Z</time>
      </trkpt>
      <trkpt lat="46.20108" lon="6.10387">
        <ele>402</ele>
        <time>2020-05-04T13:04:55.663Z</time>
      </trkpt>
      <trkpt lat="46.20105" lon="6.10378">
        <ele>402.4</ele>
        <time>2020-05-04T13:04:57.824Z</time>
      </trkpt>
      <trkpt lat="46.20103" lon="6.10371">
        <ele>403</ele>
        <time>2020-05-04T13:05:00.402Z</time>
      </trkpt>
      <trkpt lat="46.20101" lon="6.10364">
        <ele>403.8</ele>
        <time>2020-05-04T13:05:03.419Z</time>
      </trkpt>
      <trkpt lat="46.20101" lon="6.10355">
        <ele>405</ele>
        <time>2020-05-04T13:05:07.367Z</time>
      </trkpt>
      <trkpt lat="46.20101" lon="6.10348">
        <ele>406.1</ele>
        <time>2020-05-04T13:05:10.464Z</time>
      </trkpt>
      <trkpt lat="46.20102" lon="6.10342">
        <ele>407.2</ele>
        <time>2020-05-04T13:05:13.299Z</time>
      </trkpt>
      <trkpt lat="46.20104" lon="6.10335">
        <ele>408.4</ele>
        <time>2020-05-04T13:05:16.270Z</time>
      </trkpt>
      <trkpt lat="46.20106" lon="6.1033">
        <ele>409.2</ele>
        <time>2020-05-04T13:05:19.039Z</time>
      </trkpt>
      <trkpt lat="46.2011" lon="6.10323">
        <ele>410.1</ele>
        <time>2020-05-04T13:05:22.951Z</time>
      </trkpt>
      <trkpt lat="46.20115" lon="6.10313">
        <ele>411.3</ele>
        <time>2020-05-04T13:05:28.424Z</time>
      </trkpt>
      <trkpt lat="46.20122" lon="6.10303">
        <ele>412.7</ele>
        <time>2020-05-04T13:05:34.729Z</time>
      </trkpt>
      <trkpt lat="46.20133" lon="6.10289">
        <ele>414.4</ele>
        <time>2020-05-04T13:05:42.153Z</time>
      </trkpt>
      <trkpt lat="46.20145" lon="6.10274">
        <ele>415.9</ele>
        <time>2020-05-04T13:05:48.542Z</time>
      </trkpt>
      <trkpt lat="46.20167" lon="6.10245">
        <ele>418.1</ele>
        <time>2020-05-04T13:05:58.628Z</time>
      </trkpt>
      <trkpt lat="46.20184" lon="6.10223">
        <ele>418.3</ele>
        <time>2020-05-04T13:06:02.720Z</time>
      </trkpt>
      <trkpt lat="46.20195" lon="6.10209">
        <ele>418.2</ele>
        <time>2020-05-04T13:06:04.915Z</time>
      </trkpt>
      <trkpt lat="46.20217" lon="6.10186">
        <ele>417.5</ele>
        <time>2020-05-04T13:06:07.889Z</time>
      </trkpt>
      <trkpt lat="46.20233" lon="6.10167">
        <ele>416.6</ele>
        <time>2020-05-04T13:06:09.818Z</time>
      </trkpt>
      <trkpt lat="46.20243" lon="6.10155">
        <ele>416.4</ele>
        <time>2020-05-04T13:06:11.533Z</time>
      </trkpt>
      <trkpt lat="46.2025" lon="6.10149">
        <ele>416.2</ele>
        <time>2020-05-04T13:06:12.447Z</time>
      </trkpt>
      <trkpt lat="46.20258" lon="6.10142">
        <ele>416.3</ele>
        <time>2020-05-04T13:06:14.134Z</time>
      </trkpt>
      <trkpt lat="46.20266" lon="6.10135">
        <ele>416.4</ele>
        <time>2020-05-04T13:06:15.808Z</time>
      </trkpt>
      <trkpt lat="46.20287" lon="6.1012">
        <ele>416.8</ele>
        <time>2020-05-04T13:06:20.375Z</time>
      </trkpt>
      <trkpt lat="46.20297" lon="6.10112">
        <ele>417</ele>
        <time>2020-05-04T13:06:22.592Z</time>
      </trkpt>
      <trkpt lat="46.20306" lon="6.10102">
        <ele>417.3</ele>
        <time>2020-05-04T13:06:25.032Z</time>
      </trkpt>
      <trkpt lat="46.20328" lon="6.10077">
        <ele>417.9</ele>
        <time>2020-05-04T13:06:30.652Z</time>
      </trkpt>
      <trkpt lat="46.20346" lon="6.10056">
        <ele>417.8</ele>
        <time>2020-05-04T13:06:34.214Z</time>
      </trkpt>
      <trkpt lat="46.20365" lon="6.10031">
        <ele>417.8</ele>
        <time>2020-05-04T13:06:38.485Z</time>
      </trkpt>
      <trkpt lat="46.20382" lon="6.10011">
        <ele>417.7</ele>
        <time>2020-05-04T13:06:41.872Z</time>
      </trkpt>
      <trkpt lat="46.20393" lon="6.09996">
        <ele>417.8</ele>
        <time>2020-05-04T13:06:44.380Z</time>
      </trkpt>
      <trkpt lat="46.20408" lon="6.09979">
        <ele>418.3</ele>
        <time>2020-05-04T13:06:48.512Z</time>
      </trkpt>
      <trkpt lat="46.2042" lon="6.09969">
        <ele>418.7</ele>
        <time>2020-05-04T13:06:51.563Z</time>
      </trkpt>
      <trkpt lat="46.20431" lon="6.09958">
        <ele>418.6</ele>
        <time>2020-05-04T13:06:53.482Z</time>
      </trkpt>
      <trkpt lat="46.20446" lon="6.09945">
        <ele>418.4</ele>
        <time>2020-05-04T13:06:55.822Z</time>
      </trkpt>
      <trkpt lat="46.20451" lon="6.0994">
        <ele>418.3</ele>
        <time>2020-05-04T13:06:56.539Z</time>
      </trkpt>
      <trkpt lat="46.20456" lon="6.09935">
        <ele>418.3</ele>
        <time>2020-05-04T13:06:57.581Z</time>
      </trkpt>
      <trkpt lat="46.20459" lon="6.09929">
        <ele>418.2</ele>
        <time>2020-05-04T13:06:58.150Z</time>
      </trkpt>
      <trkpt lat="46.20461" lon="6.09922">
        <ele>418.3</ele>
        <time>2020-05-04T13:06:59.229Z</time>
      </trkpt>
      <trkpt lat="46.20462" lon="6.09915">
        <ele>418.4</ele>
        <time>2020-05-04T13:07:00.226Z</time>
      </trkpt>
      <trkpt lat="46.2046" lon="6.09908">
        <ele>418.7</ele>
        <time>2020-05-04T13:07:01.738Z</time>
      </trkpt>
      <trkpt lat="46.20458" lon="6.09902">
        <ele>419</ele>
        <time>2020-05-04T13:07:03.245Z</time>
      </trkpt>
      <trkpt lat="46.20455" lon="6.09896">
        <ele>419.3</ele>
        <time>2020-05-04T13:07:04.787Z</time>
      </trkpt>
      <trkpt lat="46.20451" lon="6.09892">
        <ele>419.7</ele>
        <time>2020-05-04T13:07:06.494Z</time>
      </trkpt>
      <trkpt lat="46.20447" lon="6.0989">
        <ele>420</ele>
        <time>2020-05-04T13:07:07.963Z</time>
      </trkpt>
      <trkpt lat="46.20436" lon="6.09882">
        <ele>421.1</ele>
        <time>2020-05-04T13:07:12.718Z</time>
      </trkpt>
      <trkpt lat="46.20432" lon="6.0988">
        <ele>421.6</ele>
        <time>2020-05-04T13:07:14.907Z</time>
      </trkpt>
      <trkpt lat="46.20395" lon="6.09836">
        <ele>425</ele>
        <time>2020-05-04T13:07:30.715Z</time>
      </trkpt>
      <trkpt lat="46.2029" lon="6.09686">
        <ele>423.3</ele>
        <time>2020-05-04T13:07:50.344Z</time>
      </trkpt>
      <trkpt lat="46.20178" lon="6.0952">
        <ele>412.2</ele>
        <time>2020-05-04T13:08:03.903Z</time>
      </trkpt>
      <trkpt lat="46.20172" lon="6.09511">
        <ele>411.5</ele>
        <time>2020-05-04T13:08:04.614Z</time>
      </trkpt>
      <trkpt lat="46.20166" lon="6.09503">
        <ele>410.7</ele>
        <time>2020-05-04T13:08:05.293Z</time>
      </trkpt>
      <trkpt lat="46.20161" lon="6.09498">
        <ele>410.4</ele>
        <time>2020-05-04T13:08:05.829Z</time>
      </trkpt>
      <trkpt lat="46.20152" lon="6.09492">
        <ele>409.6</ele>
        <time>2020-05-04T13:08:06.714Z</time>
      </trkpt>
      <trkpt lat="46.20141" lon="6.09486">
        <ele>408.4</ele>
        <time>2020-05-04T13:08:07.708Z</time>
      </trkpt>
      <trkpt lat="46.20129" lon="6.09483">
        <ele>406.7</ele>
        <time>2020-05-04T13:08:08.729Z</time>
      </trkpt>
      <trkpt lat="46.20116" lon="6.09482">
        <ele>404.6</ele>
        <time>2020-05-04T13:08:09.820Z</time>
      </trkpt>
      <trkpt lat="46.20105" lon="6.09483">
        <ele>402.7</ele>
        <time>2020-05-04T13:08:10.766Z</time>
      </trkpt>
      <trkpt lat="46.20093" lon="6.09481">
        <ele>400.8</ele>
        <time>2020-05-04T13:08:11.757Z</time>
      </trkpt>
      <trkpt lat="46.20083" lon="6.09478">
        <ele>399.3</ele>
        <time>2020-05-04T13:08:12.571Z</time>
      </trkpt>
      <trkpt lat="46.20077" lon="6.09473">
        <ele>399.2</ele>
        <time>2020-05-04T13:08:13.491Z</time>
      </trkpt>
      <trkpt lat="46.20071" lon="6.09466">
        <ele>399.1</ele>
        <time>2020-05-04T13:08:14.545Z</time>
      </trkpt>
      <trkpt lat="46.20068" lon="6.09457">
        <ele>399.1</ele>
        <time>2020-05-04T13:08:15.627Z</time>
      </trkpt>
      <trkpt lat="46.20065" lon="6.09447">
        <ele>399.2</ele>
        <time>2020-05-04T13:08:17.088Z</time>
      </trkpt>
      <trkpt lat="46.20065" lon="6.09435">
        <ele>399.4</ele>
        <time>2020-05-04T13:08:18.828Z</time>
      </trkpt>
      <trkpt lat="46.20066" lon="6.09423">
        <ele>399.5</ele>
        <time>2020-05-04T13:08:20.335Z</time>
      </trkpt>
      <trkpt lat="46.2007" lon="6.09404">
        <ele>399.8</ele>
        <time>2020-05-04T13:08:23.129Z</time>
      </trkpt>
      <trkpt lat="46.20076" lon="6.09374">
        <ele>400.3</ele>
        <time>2020-05-04T13:08:27.551Z</time>
      </trkpt>
      <trkpt lat="46.20084" lon="6.09347">
        <ele>400.9</ele>
        <time>2020-05-04T13:08:32.118Z</time>
      </trkpt>
      <trkpt lat="46.20091" lon="6.09306">
        <ele>401.9</ele>
        <time>2020-05-04T13:08:39.086Z</time>
      </trkpt>
    </trkseg>
  </trk>
</gpx>